createdAt,value
2022-11-12T09:26:48.333Z,99.90
2022-11-12T09:29:34.904Z,99.90
2022-11-12T09:32:21.851Z,99.90
2022-11-12T09:35:08.829Z,99.90
2022-11-12T09:37:55.182Z,99.90
2022-11-12T09:40:55.836Z,99.90
2022-11-12T09:43:50.047Z,99.90
2022-11-12T09:46:41.683Z,99.90
2022-11-12T09:49:32.346Z,99.90
2022-11-12T09:52:24.264Z,99.90
2022-11-12T09:55:21.765Z,99.90
2022-11-12T09:58:13.022Z,99.90
2022-11-12T10:01:08.424Z,99.90
2022-11-12T10:04:07.898Z,99.90
2022-11-12T10:07:02.948Z,99.90
2022-11-12T10:10:02.211Z,99.90
2022-11-12T10:12:59.674Z,99.90
2022-11-12T10:16:35.676Z,99.90
2022-11-12T10:19:47.735Z,99.90
2022-11-12T10:22:44.988Z,99.90
2022-11-12T10:25:34.484Z,99.90
2022-11-12T10:28:34.458Z,99.90
2022-11-12T10:31:26.646Z,99.90
2022-11-12T10:34:17.554Z,99.90
2022-11-12T10:37:07.116Z,99.90
2022-11-12T10:39:54.448Z,99.90
2022-11-12T10:42:58.575Z,99.90
2022-11-12T10:45:45.482Z,99.90
2022-11-12T10:48:35.172Z,99.90
2022-11-12T10:51:27.821Z,99.90
2022-11-12T10:54:30.003Z,99.90
2022-11-12T10:57:25.280Z,99.90
2022-11-12T11:00:23.443Z,99.90
2022-11-12T11:03:20.718Z,99.90
2022-11-12T11:06:22.477Z,99.90
2022-11-12T11:09:20.586Z,99.90
2022-11-12T11:12:23.567Z,99.90
2022-11-12T11:15:20.724Z,99.90
2022-11-12T11:18:11.329Z,99.90
2022-11-12T11:21:14.239Z,99.90
2022-11-12T11:24:13.441Z,99.90
2022-11-12T11:27:05.131Z,99.90
2022-11-12T11:30:05.232Z,99.90
2022-11-12T11:33:23.120Z,99.90
2022-11-12T11:36:23.722Z,99.90
2022-11-12T11:39:19.316Z,99.90
2022-11-12T11:42:20.292Z,99.90
2022-11-12T11:45:16.243Z,99.90
2022-11-12T11:48:13.156Z,99.90
2022-11-12T11:51:05.602Z,99.90
2022-11-12T11:54:03.868Z,99.90
2022-11-12T11:56:52.811Z,99.20
2022-11-12T11:59:55.493Z,98.40
2022-11-12T12:03:05.581Z,98.70
2022-11-12T12:06:16.325Z,97.90
2022-11-12T12:09:18.839Z,97.30
2022-11-12T12:12:15.204Z,97.10
2022-11-12T12:15:19.044Z,96.80
2022-11-12T12:18:11.901Z,96.50
2022-11-12T12:21:06.055Z,96.70
2022-11-12T12:23:57.366Z,96.30
2022-11-12T12:26:48.555Z,96.30
2022-11-12T12:29:41.601Z,96.10
2022-11-12T12:32:32.325Z,95.90
2022-11-12T12:35:26.061Z,96.30
2022-11-12T12:38:16.566Z,96.60
2022-11-12T12:41:10.583Z,97.10
2022-11-12T12:44:03.883Z,97.00
2022-11-12T12:46:59.986Z,96.60
2022-11-12T12:49:49.328Z,96.50
2022-11-12T12:53:00.218Z,96.70
2022-11-12T12:55:48.618Z,97.10
2022-11-12T12:58:44.119Z,97.40
2022-11-12T13:01:35.105Z,97.70
2022-11-12T13:04:53.636Z,98.10
2022-11-12T13:07:43.705Z,98.80
2022-11-12T13:10:48.668Z,99.30
2022-11-12T13:13:36.941Z,99.90
2022-11-12T13:16:57.764Z,99.90
2022-11-12T13:19:48.270Z,99.90
2022-11-12T13:22:50.755Z,99.90
2022-11-12T13:25:38.368Z,99.90
2022-11-12T13:28:24.964Z,99.90
2022-11-12T13:31:28.681Z,99.40
2022-11-12T13:34:20.742Z,99.50
2022-11-12T13:37:14.932Z,99.30
2022-11-12T13:40:05.949Z,99.10
2022-11-12T13:42:53.643Z,99.20
2022-11-12T13:45:46.525Z,99.20
2022-11-12T13:48:37.557Z,99.20
2022-11-12T13:51:30.670Z,99.60
2022-11-12T13:54:33.220Z,99.90
2022-11-12T13:57:32.831Z,99.90
2022-11-12T14:00:25.617Z,99.90
2022-11-12T14:03:19.990Z,99.90
2022-11-12T14:06:16.152Z,99.90
2022-11-12T14:09:14.752Z,99.90
2022-11-12T14:12:18.934Z,99.90
2022-11-12T14:15:21.188Z,99.90
2022-11-12T14:18:18.402Z,99.90
2022-11-12T14:21:16.253Z,99.90
2022-11-12T14:24:03.823Z,99.90
2022-11-12T14:26:50.965Z,99.90
2022-11-12T14:29:42.490Z,99.90
2022-11-12T14:32:36.774Z,99.90
2022-11-12T14:35:33.663Z,99.90
2022-11-12T14:38:22.743Z,99.90
2022-11-12T14:41:12.444Z,99.90
2022-11-12T14:44:12.731Z,99.90
2022-11-12T14:47:00.588Z,99.90
2022-11-12T14:49:50.661Z,99.90
2022-11-12T14:52:41.891Z,99.90
2022-11-12T14:55:31.601Z,99.90
2022-11-12T14:58:19.846Z,99.90
2022-11-12T15:01:55.635Z,99.90
2022-11-12T15:04:27.822Z,99.90
2022-11-12T15:07:27.416Z,99.90
2022-11-12T15:10:39.415Z,99.90
2022-11-12T15:13:28.534Z,99.90
2022-11-12T15:16:21.989Z,99.90
2022-11-12T15:19:21.881Z,99.90
2022-11-12T15:22:20.643Z,99.90
2022-11-12T15:25:21.529Z,99.90
2022-11-12T15:28:15.775Z,99.90
2022-11-12T15:31:06.680Z,99.90
2022-11-12T15:33:53.535Z,99.90
2022-11-12T15:36:42.652Z,99.90
2022-11-12T15:39:30.305Z,99.90
2022-11-12T15:42:23.796Z,99.90
2022-11-12T15:45:16.755Z,99.90
2022-11-12T15:48:03.514Z,99.90
2022-11-12T15:50:50.779Z,99.90
2022-11-12T15:53:37.291Z,99.90
2022-11-12T15:56:23.683Z,99.90
2022-11-12T15:59:16.118Z,99.90
2022-11-12T16:02:02.929Z,99.90
2022-11-12T16:04:49.366Z,99.90
2022-11-12T16:07:36.065Z,99.90
2022-11-12T16:10:22.474Z,99.90
2022-11-12T16:13:15.838Z,99.90
2022-11-12T16:16:06.004Z,99.90
2022-11-12T16:18:52.331Z,99.90
2022-11-12T16:21:38.734Z,99.90
2022-11-12T16:24:24.909Z,99.90
2022-11-12T16:27:13.785Z,99.90
2022-11-12T16:30:00.411Z,99.90
2022-11-12T16:32:48.932Z,99.90
2022-11-12T16:35:36.690Z,99.90
2022-11-12T16:38:25.709Z,99.90
2022-11-12T16:41:14.406Z,99.90
2022-11-12T16:44:00.658Z,99.90
2022-11-12T16:46:47.238Z,99.90
2022-11-12T16:49:38.711Z,99.90
2022-11-12T16:52:25.860Z,99.90
2022-11-12T16:55:12.157Z,99.90
2022-11-12T16:57:58.701Z,99.90
2022-11-12T17:00:47.426Z,99.90
2022-11-12T17:03:34.045Z,99.90
2022-11-12T17:06:21.908Z,99.90
2022-11-12T17:09:11.215Z,99.90
2022-11-12T17:11:57.658Z,99.90
2022-11-12T17:14:44.091Z,99.90
2022-11-12T17:17:30.523Z,99.90
2022-11-12T17:20:17.414Z,99.90
2022-11-12T17:23:05.184Z,99.90
2022-11-12T17:26:01.083Z,99.90
2022-11-12T17:28:48.438Z,99.90
2022-11-12T17:31:35.094Z,99.90
2022-11-12T17:34:21.856Z,99.90
2022-11-12T17:37:08.075Z,99.90
2022-11-12T17:39:55.824Z,99.90
2022-11-12T17:42:42.639Z,99.90
2022-11-12T17:45:29.010Z,99.90
2022-11-12T17:48:15.740Z,99.90
2022-11-12T17:51:08.383Z,99.90
2022-11-12T17:53:55.540Z,99.90
2022-11-12T17:56:43.316Z,99.90
2022-11-12T17:59:29.590Z,99.90
2022-11-12T18:02:16.071Z,99.90
2022-11-12T18:05:02.370Z,99.90
2022-11-12T18:07:48.782Z,99.90
2022-11-12T18:10:35.256Z,99.90
2022-11-12T18:13:23.198Z,99.90
2022-11-12T18:16:16.931Z,99.90
2022-11-12T18:19:04.619Z,99.90
2022-11-12T18:21:52.823Z,99.90
2022-11-12T18:24:39.532Z,99.90
2022-11-12T18:27:26.056Z,99.90
2022-11-12T18:30:19.071Z,99.90
2022-11-12T18:33:06.344Z,99.90
2022-11-12T18:36:02.125Z,99.90
2022-11-12T18:38:50.779Z,99.90
2022-11-12T18:41:37.141Z,99.90
2022-11-12T18:44:26.164Z,99.90
2022-11-12T18:47:14.415Z,99.90
2022-11-12T18:50:04.181Z,99.90
2022-11-12T18:52:55.112Z,99.90
2022-11-12T18:55:41.490Z,99.90
2022-11-12T18:58:34.651Z,99.90
2022-11-12T19:01:23.734Z,99.90
2022-11-12T19:04:12.719Z,99.90
2022-11-12T19:06:59.505Z,99.90
2022-11-12T19:09:46.146Z,99.90
2022-11-12T19:12:32.426Z,99.90
2022-11-12T19:15:22.750Z,99.90
2022-11-12T19:18:12.336Z,99.90
2022-11-12T19:21:04.030Z,99.90
2022-11-12T19:23:54.116Z,99.90
2022-11-12T19:26:41.591Z,99.90
2022-11-12T19:29:28.513Z,99.90
2022-11-12T19:32:14.985Z,99.90
2022-11-12T19:35:01.752Z,99.90
2022-11-12T19:37:49.821Z,99.90
2022-11-12T19:40:36.271Z,99.90
2022-11-12T19:43:24.492Z,99.90
2022-11-12T19:46:12.210Z,99.90
2022-11-12T19:48:59.090Z,99.90
2022-11-12T19:51:45.770Z,99.90
2022-11-12T19:54:33.721Z,99.90
2022-11-12T19:57:21.202Z,99.90
2022-11-12T20:00:10.776Z,99.90
2022-11-12T20:02:57.015Z,99.90
2022-11-12T20:05:43.287Z,99.90
2022-11-12T20:08:30.129Z,99.90
2022-11-12T20:11:18.887Z,99.90
2022-11-12T20:14:05.173Z,99.90
2022-11-12T20:16:51.962Z,99.90
2022-11-12T20:19:38.599Z,99.90
2022-11-12T20:22:30.741Z,99.90
2022-11-12T20:25:18.379Z,99.90
2022-11-12T20:28:06.509Z,99.90
2022-11-12T20:30:52.980Z,99.90
2022-11-12T20:33:42.235Z,99.90
2022-11-12T20:36:31.099Z,99.90
2022-11-12T20:39:17.830Z,99.90
2022-11-12T20:42:04.405Z,99.90
2022-11-12T20:44:53.612Z,99.90
2022-11-12T20:47:40.678Z,99.90
2022-11-12T20:50:27.225Z,99.90
2022-11-12T20:53:13.810Z,99.90
2022-11-12T20:56:11.475Z,99.90
2022-11-12T20:58:58.398Z,99.90
2022-11-12T21:01:46.205Z,99.90
2022-11-12T21:04:33.046Z,99.90
2022-11-12T21:07:19.438Z,99.90
2022-11-12T21:10:06.810Z,99.90
2022-11-12T21:12:53.244Z,99.90
2022-11-12T21:15:39.770Z,99.90
2022-11-12T21:18:28.520Z,99.90
2022-11-12T21:21:18.414Z,99.90
2022-11-12T21:24:05.514Z,99.90
2022-11-12T21:26:52.310Z,99.90
2022-11-12T21:29:38.846Z,99.90
2022-11-12T21:32:25.374Z,99.90
2022-11-12T21:35:13.065Z,99.90
2022-11-12T21:37:59.481Z,99.90
2022-11-12T21:40:45.763Z,99.90
2022-11-12T21:43:32.437Z,99.90
2022-11-12T21:46:20.330Z,99.90
2022-11-12T21:49:07.407Z,99.90
2022-11-12T21:51:55.494Z,99.90
2022-11-12T21:54:41.939Z,99.90
2022-11-12T21:57:28.375Z,99.90
2022-11-12T22:00:40.420Z,99.90
2022-11-12T22:03:22.635Z,99.90
2022-11-12T22:06:09.173Z,99.90
2022-11-12T22:08:58.505Z,99.90
2022-11-12T22:11:45.305Z,99.90
2022-11-12T22:14:31.779Z,99.90
2022-11-12T22:17:18.357Z,99.90
2022-11-12T22:20:05.592Z,99.90
2022-11-12T22:22:52.797Z,99.90
2022-11-12T22:25:40.533Z,99.90
2022-11-12T22:28:27.736Z,99.90
2022-11-12T22:31:17.650Z,99.90
2022-11-12T22:34:04.543Z,99.90
2022-11-12T22:36:51.031Z,99.90
2022-11-12T22:39:37.376Z,99.90
2022-11-12T22:42:25.334Z,99.90
2022-11-12T22:45:12.097Z,99.90
2022-11-12T22:48:00.099Z,99.90
2022-11-12T22:50:46.855Z,99.90
2022-11-12T22:53:33.939Z,99.90
2022-11-12T22:56:20.409Z,99.90
2022-11-12T22:59:08.095Z,99.90
2022-11-12T23:01:54.630Z,99.90
2022-11-12T23:04:40.820Z,99.90
2022-11-12T23:07:27.232Z,99.90
2022-11-12T23:10:13.700Z,99.90
2022-11-12T23:13:00.086Z,99.90
2022-11-12T23:15:48.474Z,99.90
2022-11-12T23:18:35.238Z,99.90
2022-11-12T23:21:23.871Z,99.90
2022-11-12T23:24:10.565Z,99.90
2022-11-12T23:26:57.050Z,99.90
2022-11-12T23:29:43.447Z,99.90
2022-11-12T23:32:31.373Z,99.90
2022-11-12T23:35:17.861Z,99.90
2022-11-12T23:38:04.552Z,99.90
2022-11-12T23:40:54.710Z,99.90
2022-11-12T23:43:41.708Z,99.90
2022-11-12T23:46:28.295Z,99.90
2022-11-12T23:49:15.944Z,99.90
2022-11-12T23:52:02.276Z,99.90
2022-11-12T23:54:48.884Z,99.90
2022-11-12T23:57:35.391Z,99.90
